Wray, GA (31798)

2:04 AM EDT on June 25, 2017 (GMT -0400)
Westwood Heights | | Change Station

Elev 240 ft 31.49 °N, 82.89 °W | Updated 10 seconds ago

Partly Cloudy
Partly Cloudy
77.4 °F
Feels Like 79 °F
N
0.0
Wind Variable Wind from SSW

Today
High -- | Low -- °F
--% Chance of Precip.
Yesterday
High -- | Low -- °F
Precip. -- in
Pressure 30.08 in
Visibility 10.0 miles
Clouds Mostly Cloudy 300 ft
Overcast 7000 ft
Heat Index 79 °F
Dew Point 74 °F
Humidity 91%
Rainfall 0.00 in
Snow Depth Not available.
6:28 AM 8:41 PM
New Moon, 2% visible
METAR KFZG 250555Z AUTO 00000KT 10SM BKN003 OVC070 26/24 A3008 RMK AO2 LTG DSNT N AND NE T02560243 10311 20256 403310237
Pressure 30.08 in
Visibility 10.0 miles
Clouds Mostly Cloudy 300 ft
Overcast 7000 ft
Heat Index 79 °F
Dew Point 74 °F
Humidity 91%
Rainfall 0.00 in
Snow Depth Not available.
6:28 AM 8:41 PM
New Moon, 2% visible
METAR KFZG 250555Z AUTO 00000KT 10SM BKN003 OVC070 26/24 A3008 RMK AO2 LTG DSNT N AND NE T02560243 10311 20256 403310237

Get Severe Weather Alerts

Thanks for signing up!

Be on the lookout for a verification email in your inbox.

You'll start receiving the daily forecast at 6 AM.

×

10-Day Weather Forecast

Almanac

Astronomy

Jun. 25, 2017 Rise Set
Actual Time
Civil Twilight
Nautical Twilight
Astronomical Twilight
Moon
Length of Visible Light
Length of Day
Tomorrow will be .
, % of the Moon is Illuminated

Today's Extremes

State Highs State Lows

Community

WunderPhotos

Category 6

Welcome to Category 6. This is the collective home for Weather Underground's featured writeups by Dr. Jeff Masters (right), Bob Henson (left), Chris Burt, and other regular contributors.

Nearby

Air Quality

  Air Quality AQ Index Pollutant
Not available.

Snow Depth

Station Depth Elevation

Earthquake Activity

City Distance Mag. Time & Date
Minimum magnitude displayed is 2.5.

Coastal Water Temperatures

Place Temperature

Stations

Nearby Weather Stations

Station Location Temp. Windchill Dew Point Humidity Wind Precip. Elev Updated Type
                   

Watches & Warnings

There are currently no watches in effect.